createdAt,value
2022-12-19T00:04:12.250Z,215.00
2022-12-19T00:07:13.999Z,202.90
2022-12-19T00:10:15.948Z,202.60
2022-12-19T00:13:17.572Z,191.20
2022-12-19T00:16:21.894Z,195.30
2022-12-19T00:19:23.566Z,190.40
2022-12-19T00:25:26.996Z,181.80
2022-12-19T00:28:29.576Z,195.20
2022-12-19T00:31:33.892Z,217.20
2022-12-19T00:34:35.767Z,172.90
2022-12-19T00:37:37.476Z,205.20
2022-12-19T00:40:42.567Z,199.00
2022-12-19T00:43:44.979Z,196.20
2022-12-19T00:46:52.702Z,199.10
2022-12-19T00:49:54.867Z,231.70
2022-12-19T00:52:56.623Z,221.40
2022-12-19T00:56:04.828Z,229.80
2022-12-19T00:59:06.600Z,226.40
2022-12-19T01:02:08.436Z,196.20
2022-12-19T01:05:10.371Z,214.70
2022-12-19T01:08:12.055Z,210.10
2022-12-19T01:14:22.297Z,264.60
2022-12-19T01:17:24.420Z,251.90
2022-12-19T01:20:29.902Z,227.80
2022-12-19T01:23:32.114Z,272.60
2022-12-19T01:26:34.682Z,294.80
2022-12-19T01:32:50.191Z,239.80
2022-12-19T01:35:51.908Z,241.10
2022-12-19T01:38:57.385Z,252.30
2022-12-19T01:41:59.112Z,280.90
2022-12-19T01:45:13.553Z,278.90
2022-12-19T01:48:19.303Z,295.20
2022-12-19T01:51:24.517Z,283.50
2022-12-19T01:54:35.320Z,299.80
2022-12-19T01:57:38.000Z,277.80
2022-12-19T02:00:42.498Z,286.60
2022-12-19T02:03:45.242Z,266.60
2022-12-19T02:06:47.365Z,272.80
2022-12-19T02:09:56.961Z,245.70
2022-12-19T02:12:59.785Z,265.10
2022-12-19T02:16:24.580Z,198.70
2022-12-19T02:19:49.924Z,213.60
2022-12-19T02:23:00.585Z,213.90
2022-12-19T02:26:24.297Z,190.40
2022-12-19T02:29:34.356Z,195.30
2022-12-19T02:32:58.302Z,155.90
2022-12-19T02:36:08.584Z,188.40
2022-12-19T02:39:30.605Z,201.20
2022-12-19T02:42:39.364Z,171.60
2022-12-19T02:45:42.611Z,196.60
2022-12-19T02:48:44.736Z,192.40
2022-12-19T02:51:46.514Z,196.30
2022-12-19T02:54:50.280Z,190.00
2022-12-19T02:58:20.392Z,182.20
2022-12-19T03:01:41.034Z,137.30
2022-12-19T03:04:54.773Z,161.00
2022-12-19T03:08:04.139Z,174.30
2022-12-19T03:11:13.451Z,126.90
2022-12-19T03:14:19.323Z,155.10
2022-12-19T03:17:21.218Z,174.10
2022-12-19T03:20:26.537Z,169.40
2022-12-19T03:23:29.267Z,133.60
2022-12-19T03:27:00.361Z,150.60
2022-12-19T03:30:06.992Z,186.40
2022-12-19T03:33:10.246Z,216.40
2022-12-19T03:36:16.651Z,236.00
2022-12-19T03:39:19.707Z,184.70
2022-12-19T03:42:42.213Z,193.10
2022-12-19T03:45:58.216Z,187.80
2022-12-19T03:48:59.913Z,153.30
2022-12-19T03:52:19.685Z,154.00
2022-12-19T03:55:35.859Z,155.70
2022-12-19T03:58:40.389Z,163.10
2022-12-19T04:01:42.599Z,209.80
2022-12-19T04:04:46.723Z,214.00
2022-12-19T04:07:50.156Z,207.20
2022-12-19T04:10:55.925Z,269.60
2022-12-19T04:14:04.587Z,257.30
2022-12-19T04:17:18.156Z,278.30
2022-12-19T04:20:21.509Z,258.70
2022-12-19T04:23:29.314Z,256.30
2022-12-19T04:26:31.765Z,250.70
2022-12-19T04:29:35.860Z,290.00
2022-12-19T04:32:37.905Z,278.90
2022-12-19T04:35:39.787Z,327.00
2022-12-19T04:38:41.643Z,285.50
2022-12-19T04:41:43.404Z,328.70
2022-12-19T04:44:45.215Z,193.10
2022-12-19T04:47:46.932Z,204.00
2022-12-19T04:53:50.333Z,209.80
2022-12-19T04:56:53.409Z,287.00
2022-12-19T04:59:55.050Z,262.70
2022-12-19T05:02:56.926Z,142.50
2022-12-19T05:06:11.326Z,156.30
2022-12-19T05:09:13.161Z,261.40
2022-12-19T05:12:14.895Z,324.20
2022-12-19T05:15:17.280Z,313.70
2022-12-19T05:18:18.924Z,165.00
2022-12-19T05:24:23.415Z,305.30
2022-12-19T05:27:25.133Z,282.40
2022-12-19T05:30:27.399Z,266.40
2022-12-19T05:33:29.056Z,267.40
2022-12-19T05:36:32.655Z,260.00
2022-12-19T05:39:35.143Z,282.30
2022-12-19T05:42:36.947Z,269.90
2022-12-19T05:45:40.131Z,293.40
2022-12-19T05:48:41.793Z,266.80
2022-12-19T05:51:43.710Z,283.80
2022-12-19T05:54:45.885Z,238.30
2022-12-19T05:57:47.815Z,283.70
2022-12-19T06:00:49.618Z,274.00
2022-12-19T06:03:52.398Z,246.50
2022-12-19T06:06:54.082Z,266.70
2022-12-19T06:09:56.167Z,269.00
2022-12-19T06:12:57.757Z,266.90
2022-12-19T06:19:09.123Z,258.30
2022-12-19T06:22:12.268Z,286.30
2022-12-19T06:25:14.007Z,280.40
2022-12-19T06:28:15.874Z,291.00
2022-12-19T06:31:19.209Z,263.00
2022-12-19T06:34:47.022Z,277.50
2022-12-19T06:41:03.239Z,272.20
2022-12-19T06:44:07.654Z,224.10
2022-12-19T06:47:10.284Z,266.60
2022-12-19T06:53:13.627Z,408.70
2022-12-19T06:56:16.879Z,329.70
2022-12-19T06:59:18.593Z,318.20
2022-12-19T07:05:24.549Z,267.00
2022-12-19T07:08:29.795Z,270.80
2022-12-19T07:11:31.500Z,283.40
2022-12-19T07:14:33.473Z,279.20
2022-12-19T07:17:36.302Z,269.30
2022-12-19T07:20:44.826Z,242.50
2022-12-19T07:23:46.863Z,271.60
2022-12-19T07:26:48.608Z,252.70
2022-12-19T07:29:50.399Z,275.50
2022-12-19T07:32:52.053Z,282.80
2022-12-19T07:38:55.348Z,275.90
2022-12-19T07:41:57.001Z,282.00
2022-12-19T07:44:58.563Z,300.30
2022-12-19T07:51:02.959Z,284.10
2022-12-19T07:57:08.101Z,317.30
2022-12-19T08:00:10.439Z,304.70
2022-12-19T08:03:12.623Z,327.30
2022-12-19T08:06:14.532Z,339.30
2022-12-19T08:09:16.328Z,346.70
2022-12-19T08:15:19.616Z,352.00
2022-12-19T08:18:21.302Z,316.80
2022-12-19T08:24:26.841Z,332.00
2022-12-19T08:27:29.747Z,331.10
2022-12-19T08:30:31.422Z,328.50
2022-12-19T08:33:33.418Z,316.00
2022-12-19T08:39:37.339Z,323.70
2022-12-19T08:42:39.310Z,331.40
2022-12-19T08:45:41.112Z,324.40
2022-12-19T08:48:42.828Z,299.30
2022-12-19T08:51:44.597Z,302.10
2022-12-19T08:54:46.465Z,338.20
2022-12-19T09:00:55.511Z,360.10
2022-12-19T09:05:17.853Z,303.20
2022-12-19T09:07:21.935Z,312.60
2022-12-19T09:10:23.805Z,278.20
2022-12-19T09:16:28.943Z,284.90
2022-12-19T09:19:30.940Z,303.90
2022-12-19T09:25:34.421Z,285.70
2022-12-19T09:28:37.730Z,276.00
2022-12-19T09:31:39.387Z,255.60
2022-12-19T09:34:41.070Z,264.80
2022-12-19T09:37:42.865Z,258.70
2022-12-19T09:40:55.169Z,223.10
2022-12-19T09:44:16.247Z,200.00
2022-12-19T09:47:23.233Z,186.20
2022-12-19T09:50:52.639Z,165.90
2022-12-19T09:54:23.599Z,164.50
2022-12-19T09:57:48.458Z,155.50
2022-12-19T10:01:00.226Z,154.20
2022-12-19T10:04:12.161Z,152.50
2022-12-19T10:07:33.155Z,149.60
2022-12-19T10:12:39.583Z,150.20
2022-12-19T10:15:03.518Z,151.30
2022-12-19T10:18:15.534Z,141.60
2022-12-19T10:22:16.204Z,151.10
2022-12-19T10:25:26.243Z,168.30
2022-12-19T10:28:35.111Z,173.00
2022-12-19T10:31:41.614Z,169.00
2022-12-19T10:34:45.452Z,170.80
2022-12-19T10:38:05.758Z,172.20
2022-12-19T10:41:15.898Z,170.60
2022-12-19T10:44:18.538Z,182.90
2022-12-19T10:47:20.333Z,181.00
2022-12-19T10:53:29.811Z,184.70
2022-12-19T10:56:37.407Z,188.00
2022-12-19T10:59:39.830Z,199.70
2022-12-19T11:02:46.129Z,195.70
2022-12-19T11:05:58.387Z,195.70
2022-12-19T11:09:21.149Z,192.80
2022-12-19T11:16:09.512Z,172.50
2022-12-19T11:20:11.573Z,163.80
2022-12-19T11:29:18.092Z,169.50
2022-12-19T11:29:34.803Z,167.70
2022-12-19T11:30:38.646Z,157.70
2022-12-19T11:33:17.809Z,153.10
2022-12-19T11:36:39.674Z,158.40
2022-12-19T11:39:48.430Z,160.80
2022-12-19T11:43:25.463Z,157.30
2022-12-19T11:46:40.369Z,174.80
2022-12-19T11:49:46.344Z,162.40
2022-12-19T11:53:14.702Z,167.00
2022-12-19T11:59:36.232Z,172.60
2022-12-19T12:02:52.609Z,172.60
2022-12-19T12:05:56.646Z,167.60
2022-12-19T12:10:43.603Z,162.60
2022-12-19T12:22:47.337Z,159.60
2022-12-19T12:30:07.344Z,146.90
2022-12-19T12:31:12.277Z,186.30
2022-12-19T12:31:14.531Z,163.70
2022-12-19T12:31:49.678Z,165.70
2022-12-19T12:35:28.680Z,169.30
2022-12-19T12:35:28.788Z,180.40
2022-12-19T12:38:44.839Z,180.20
2022-12-19T12:42:03.847Z,183.60
2022-12-19T12:45:20.456Z,169.10
2022-12-19T12:48:39.044Z,180.40
2022-12-19T12:51:41.334Z,207.90
2022-12-19T12:54:44.724Z,179.80
2022-12-19T12:57:46.481Z,175.60
2022-12-19T13:01:09.225Z,185.50
2022-12-19T13:04:11.076Z,177.90
2022-12-19T13:07:35.041Z,155.00
2022-12-19T13:10:54.227Z,178.40
2022-12-19T13:13:58.474Z,176.10
2022-12-19T13:17:04.755Z,178.60
2022-12-19T13:20:06.483Z,182.50
2022-12-19T13:23:34.139Z,187.10
2022-12-19T13:26:51.344Z,238.90
2022-12-19T13:30:12.588Z,185.80
2022-12-19T13:33:15.823Z,153.40
2022-12-19T13:39:50.342Z,171.60
2022-12-19T13:40:22.533Z,185.30
2022-12-19T13:43:47.542Z,183.50
2022-12-19T13:46:49.777Z,193.40
2022-12-19T13:49:52.388Z,194.30
2022-12-19T13:52:54.307Z,197.40
2022-12-19T13:56:26.149Z,198.30
2022-12-19T13:59:33.439Z,207.80
2022-12-19T14:02:45.344Z,211.80
2022-12-19T14:06:18.689Z,208.80
2022-12-19T14:11:26.230Z,209.60
2022-12-19T14:13:48.394Z,193.30
2022-12-19T14:16:44.162Z,211.40
2022-12-19T14:19:49.863Z,192.40
2022-12-19T14:22:59.558Z,199.60
2022-12-19T14:28:17.738Z,196.50
2022-12-19T14:29:45.056Z,208.30
2022-12-19T14:33:47.424Z,196.50
2022-12-19T14:36:17.472Z,191.90
2022-12-19T14:39:42.033Z,194.70
2022-12-19T14:43:57.345Z,191.50
2022-12-19T14:53:52.227Z,183.50
2022-12-19T14:54:00.885Z,187.50
2022-12-19T14:54:50.269Z,199.40
2022-12-19T14:56:59.880Z,185.80
2022-12-19T15:00:50.949Z,209.10
2022-12-19T15:04:33.745Z,207.00
2022-12-19T15:07:25.890Z,213.60
2022-12-19T15:11:08.584Z,215.90
2022-12-19T15:14:52.682Z,245.20
2022-12-19T15:17:22.555Z,242.20
2022-12-19T15:20:24.254Z,236.70
2022-12-19T15:23:26.930Z,247.30
2022-12-19T15:26:31.263Z,249.60
2022-12-19T15:29:33.627Z,217.30
2022-12-19T15:32:35.373Z,216.70
2022-12-19T15:35:37.083Z,206.10
2022-12-19T15:41:41.761Z,290.30
2022-12-19T15:44:44.662Z,275.50
2022-12-19T15:47:48.175Z,247.80
2022-12-19T15:50:49.800Z,259.90
2022-12-19T15:53:51.557Z,239.00
2022-12-19T15:59:58.284Z,250.00
2022-12-19T16:06:21.932Z,249.90
2022-12-19T16:09:26.982Z,270.60
2022-12-19T16:12:37.832Z,279.90
2022-12-19T16:15:40.163Z,242.50
2022-12-19T16:18:42.710Z,268.50
2022-12-19T16:21:45.092Z,259.20
2022-12-19T16:24:47.104Z,234.30
2022-12-19T16:27:56.453Z,233.50
2022-12-19T16:30:59.393Z,242.50
2022-12-19T16:34:02.491Z,274.80
2022-12-19T16:37:04.352Z,264.30
2022-12-19T16:40:07.113Z,231.70
2022-12-19T16:43:27.128Z,219.00
2022-12-19T16:46:31.055Z,341.70
2022-12-19T16:49:33.054Z,281.40
2022-12-19T16:52:40.614Z,189.20
2022-12-19T16:55:45.814Z,269.40
2022-12-19T16:58:47.608Z,239.90
2022-12-19T17:04:54.140Z,235.00
2022-12-19T17:07:56.531Z,184.70
2022-12-19T17:10:58.708Z,210.50
2022-12-19T17:14:08.667Z,198.90
2022-12-19T17:17:14.312Z,234.80
2022-12-19T17:20:20.738Z,258.00
2022-12-19T17:23:24.084Z,257.80
2022-12-19T17:26:25.946Z,443.70
2022-12-19T17:32:29.527Z,272.70
2022-12-19T17:35:35.366Z,257.10
2022-12-19T17:38:37.227Z,283.50
2022-12-19T17:41:38.854Z,240.50
2022-12-19T17:44:40.536Z,261.90
2022-12-19T17:53:46.189Z,245.10
2022-12-19T17:56:49.930Z,250.70
2022-12-19T17:59:51.657Z,245.70
2022-12-19T18:05:58.159Z,227.00
2022-12-19T18:09:02.696Z,248.70
2022-12-19T18:12:04.691Z,275.90
2022-12-19T18:15:06.854Z,276.00
2022-12-19T18:18:25.467Z,272.40
2022-12-19T18:21:27.109Z,269.50
2022-12-19T18:24:28.821Z,317.10
2022-12-19T18:30:34.005Z,374.50
2022-12-19T18:33:38.635Z,316.80
2022-12-19T18:36:42.375Z,289.10
2022-12-19T18:39:44.080Z,349.10
2022-12-19T18:42:46.129Z,361.40
2022-12-19T18:45:51.700Z,363.40
2022-12-19T18:48:53.469Z,339.80
2022-12-19T18:51:57.297Z,350.30
2022-12-19T18:58:00.734Z,353.50
2022-12-19T19:04:05.174Z,326.40
2022-12-19T19:07:10.126Z,280.50
2022-12-19T19:10:32.051Z,322.20
2022-12-19T19:16:36.802Z,314.30
2022-12-19T19:19:38.486Z,341.30
2022-12-19T19:22:40.443Z,324.30
2022-12-19T19:25:42.270Z,332.70
2022-12-19T19:28:50.295Z,335.20
2022-12-19T19:31:53.782Z,358.20
2022-12-19T19:34:55.888Z,349.40
2022-12-19T19:38:00.520Z,344.60
2022-12-19T19:41:02.361Z,364.30
2022-12-19T19:47:05.711Z,336.80
2022-12-19T19:53:09.700Z,332.10
2022-12-19T19:56:11.799Z,324.10
2022-12-19T19:59:13.592Z,332.60
2022-12-19T20:05:19.012Z,381.20
2022-12-19T20:11:22.386Z,228.00
2022-12-19T20:17:25.958Z,320.50
2022-12-19T20:20:27.751Z,382.20
2022-12-19T20:26:31.230Z,357.30
2022-12-19T20:32:34.705Z,408.70
2022-12-19T20:38:39.116Z,382.10
2022-12-19T20:41:40.875Z,369.30
2022-12-19T20:44:42.677Z,364.20
2022-12-19T20:50:45.870Z,361.80
2022-12-19T20:53:48.370Z,377.50
2022-12-19T20:56:50.066Z,362.40
2022-12-19T20:59:52.529Z,369.80
2022-12-19T21:06:19.910Z,387.30
2022-12-19T21:09:21.591Z,392.20
2022-12-19T21:12:23.267Z,381.70
2022-12-19T21:15:25.401Z,377.70
2022-12-19T21:18:27.753Z,384.20
2022-12-19T21:21:29.979Z,368.10
2022-12-19T21:24:33.433Z,381.60
2022-12-19T21:27:35.182Z,368.90
2022-12-19T21:30:37.421Z,346.40
2022-12-19T21:33:39.112Z,360.80
2022-12-19T21:36:40.955Z,353.30
2022-12-19T21:42:44.304Z,349.60
2022-12-19T21:48:49.326Z,340.00
2022-12-19T21:51:51.357Z,338.00
2022-12-19T21:54:53.117Z,341.30
2022-12-19T21:57:54.814Z,346.80
2022-12-19T22:01:08.511Z,373.30
2022-12-19T22:04:22.422Z,357.50
2022-12-19T22:07:24.228Z,326.40
2022-12-19T22:10:25.912Z,316.70
2022-12-19T22:13:28.420Z,303.50
2022-12-19T22:16:30.211Z,329.60
2022-12-19T22:22:33.677Z,328.30
2022-12-19T22:25:35.464Z,333.50
2022-12-19T22:31:41.006Z,326.10
2022-12-19T22:34:42.920Z,339.30
2022-12-19T22:37:44.799Z,318.60
2022-12-19T22:43:48.807Z,337.70
2022-12-19T22:46:51.276Z,326.50
2022-12-19T22:49:53.162Z,317.90
2022-12-19T22:55:56.613Z,335.20
2022-12-19T23:02:05.430Z,304.80
2022-12-19T23:05:07.991Z,310.30
2022-12-19T23:08:09.688Z,305.50
2022-12-19T23:11:15.284Z,309.20
2022-12-19T23:14:18.343Z,300.90
2022-12-19T23:17:20.284Z,308.10
2022-12-19T23:23:23.919Z,308.30
2022-12-19T23:26:33.674Z,299.30
2022-12-19T23:29:35.444Z,314.80
2022-12-19T23:32:37.241Z,311.10
2022-12-19T23:35:38.897Z,300.40
2022-12-19T23:38:42.377Z,313.00
2022-12-19T23:41:44.211Z,305.40
2022-12-19T23:44:46.214Z,311.80
2022-12-19T23:47:48.638Z,304.60
2022-12-19T23:50:57.940Z,302.00
2022-12-19T23:53:59.663Z,284.80
2022-12-19T23:57:01.351Z,278.90
